sensor_id;sensor_type;location;lat;lon;timestamp;temperature;humidity
43183;DHT22;28802;38.578;-0.066;2023-02-22T00:00:36;13.00;99.90
43183;DHT22;28802;38.578;-0.066;2023-02-22T00:03:20;12.90;99.90
43183;DHT22;28802;38.578;-0.066;2023-02-22T00:05:57;12.80;99.90
43183;DHT22;28802;38.578;-0.066;2023-02-22T00:08:29;12.90;99.90
43183;DHT22;28802;38.578;-0.066;2023-02-22T00:10:57;13.00;99.90
43183;DHT22;28802;38.578;-0.066;2023-02-22T00:13:23;13.30;99.90
43183;DHT22;28802;38.578;-0.066;2023-02-22T00:15:49;13.30;99.90
43183;DHT22;28802;38.578;-0.066;2023-02-22T00:18:17;13.40;99.90
43183;DHT22;28802;38.578;-0.066;2023-02-22T00:20:43;13.40;99.90
43183;DHT22;28802;38.578;-0.066;2023-02-22T00:23:14;13.50;99.90
43183;DHT22;28802;38.578;-0.066;2023-02-22T00:25:41;13.50;99.90
43183;DHT22;28802;38.578;-0.066;2023-02-22T00:28:07;13.30;99.90
43183;DHT22;28802;38.578;-0.066;2023-02-22T00:30:33;13.20;99.90
43183;DHT22;28802;38.578;-0.066;2023-02-22T00:33:00;13.30;99.90
43183;DHT22;28802;38.578;-0.066;2023-02-22T00:35:28;13.40;99.90
43183;DHT22;28802;38.578;-0.066;2023-02-22T00:37:58;13.30;99.90
43183;DHT22;28802;38.578;-0.066;2023-02-22T00:40:26;13.40;99.90
43183;DHT22;28802;38.578;-0.066;2023-02-22T00:42:56;13.30;99.90
43183;DHT22;28802;38.578;-0.066;2023-02-22T00:45:23;13.30;99.90
43183;DHT22;28802;38.578;-0.066;2023-02-22T00:47:50;13.20;99.90
43183;DHT22;28802;38.578;-0.066;2023-02-22T00:50:17;13.20;99.90
43183;DHT22;28802;38.578;-0.066;2023-02-22T00:52:44;13.10;99.90
43183;DHT22;28802;38.578;-0.066;2023-02-22T00:55:17;13.00;99.90
43183;DHT22;28802;38.578;-0.066;2023-02-22T00:57:44;12.90;99.90
43183;DHT22;28802;38.578;-0.066;2023-02-22T01:00:15;13.00;99.90
43183;DHT22;28802;38.578;-0.066;2023-02-22T01:02:42;13.00;99.90
43183;DHT22;28802;38.578;-0.066;2023-02-22T01:05:11;13.00;99.90
43183;DHT22;28802;38.578;-0.066;2023-02-22T01:07:38;12.90;99.90
43183;DHT22;28802;38.578;-0.066;2023-02-22T01:10:05;12.80;99.90
43183;DHT22;28802;38.578;-0.066;2023-02-22T01:12:34;12.80;99.90
43183;DHT22;28802;38.578;-0.066;2023-02-22T01:15:01;12.80;99.90
43183;DHT22;28802;38.578;-0.066;2023-02-22T01:17:28;12.80;99.90
43183;DHT22;28802;38.578;-0.066;2023-02-22T01:19:55;12.60;99.90
43183;DHT22;28802;38.578;-0.066;2023-02-22T01:22:21;12.60;99.90
43183;DHT22;28802;38.578;-0.066;2023-02-22T01:24:48;12.60;99.90
43183;DHT22;28802;38.578;-0.066;2023-02-22T01:27:15;12.60;99.90
43183;DHT22;28802;38.578;-0.066;2023-02-22T01:29:42;12.50;99.90
43183;DHT22;28802;38.578;-0.066;2023-02-22T01:32:08;12.50;99.90
43183;DHT22;28802;38.578;-0.066;2023-02-22T01:34:34;12.40;99.90
43183;DHT22;28802;38.578;-0.066;2023-02-22T01:37:01;12.50;99.90
43183;DHT22;28802;38.578;-0.066;2023-02-22T01:39:27;12.40;99.90
43183;DHT22;28802;38.578;-0.066;2023-02-22T01:41:53;12.40;99.90
43183;DHT22;28802;38.578;-0.066;2023-02-22T01:46:46;12.30;99.90
43183;DHT22;28802;38.578;-0.066;2023-02-22T01:49:13;12.30;99.90
43183;DHT22;28802;38.578;-0.066;2023-02-22T01:51:43;12.30;99.90
43183;DHT22;28802;38.578;-0.066;2023-02-22T01:54:20;12.20;99.90
43183;DHT22;28802;38.578;-0.066;2023-02-22T01:59:45;12.10;99.90
43183;DHT22;28802;38.578;-0.066;2023-02-22T02:02:13;12.00;99.90
43183;DHT22;28802;38.578;-0.066;2023-02-22T02:04:41;12.00;99.90
43183;DHT22;28802;38.578;-0.066;2023-02-22T02:07:10;11.80;99.90
43183;DHT22;28802;38.578;-0.066;2023-02-22T02:12:22;11.80;99.90
43183;DHT22;28802;38.578;-0.066;2023-02-22T02:14:50;11.80;99.90
43183;DHT22;28802;38.578;-0.066;2023-02-22T02:17:18;11.80;99.90
43183;DHT22;28802;38.578;-0.066;2023-02-22T02:20:02;11.90;99.90
43183;DHT22;28802;38.578;-0.066;2023-02-22T02:36:18;11.50;99.90
43183;DHT22;28802;38.578;-0.066;2023-02-22T02:39:11;11.40;99.90
43183;DHT22;28802;38.578;-0.066;2023-02-22T02:41:43;11.40;99.90
43183;DHT22;28802;38.578;-0.066;2023-02-22T02:49:30;11.50;99.90
43183;DHT22;28802;38.578;-0.066;2023-02-22T02:51:59;11.40;99.90
43183;DHT22;28802;38.578;-0.066;2023-02-22T02:54:27;11.40;99.90
43183;DHT22;28802;38.578;-0.066;2023-02-22T02:56:55;11.40;99.90
43183;DHT22;28802;38.578;-0.066;2023-02-22T03:10:02;10.90;99.90
43183;DHT22;28802;38.578;-0.066;2023-02-22T03:18:06;11.10;99.90
43183;DHT22;28802;38.578;-0.066;2023-02-22T03:20:47;10.90;99.90
43183;DHT22;28802;38.578;-0.066;2023-02-22T03:23:20;10.70;99.90
43183;DHT22;28802;38.578;-0.066;2023-02-22T03:25:54;10.70;99.90
43183;DHT22;28802;38.578;-0.066;2023-02-22T03:28:25;10.70;99.90
43183;DHT22;28802;38.578;-0.066;2023-02-22T03:30:59;10.70;99.90
43183;DHT22;28802;38.578;-0.066;2023-02-22T03:33:42;10.60;99.90
43183;DHT22;28802;38.578;-0.066;2023-02-22T03:36:30;10.60;99.90
43183;DHT22;28802;38.578;-0.066;2023-02-22T03:39:00;10.50;99.90
43183;DHT22;28802;38.578;-0.066;2023-02-22T03:41:30;10.50;99.90
43183;DHT22;28802;38.578;-0.066;2023-02-22T03:44:05;10.70;99.90
43183;DHT22;28802;38.578;-0.066;2023-02-22T03:46:36;10.70;99.90
43183;DHT22;28802;38.578;-0.066;2023-02-22T03:49:28;10.90;99.90
43183;DHT22;28802;38.578;-0.066;2023-02-22T03:51:57;10.80;99.90
43183;DHT22;28802;38.578;-0.066;2023-02-22T03:54:24;10.70;99.90
43183;DHT22;28802;38.578;-0.066;2023-02-22T03:56:55;10.90;99.90
43183;DHT22;28802;38.578;-0.066;2023-02-22T03:59:22;10.80;99.90
43183;DHT22;28802;38.578;-0.066;2023-02-22T04:01:53;10.80;99.90
43183;DHT22;28802;38.578;-0.066;2023-02-22T04:04:20;10.80;99.90
43183;DHT22;28802;38.578;-0.066;2023-02-22T04:06:48;10.60;99.90
43183;DHT22;28802;38.578;-0.066;2023-02-22T04:09:16;10.70;99.90
43183;DHT22;28802;38.578;-0.066;2023-02-22T04:11:42;10.70;99.90
43183;DHT22;28802;38.578;-0.066;2023-02-22T04:14:10;10.70;99.90
43183;DHT22;28802;38.578;-0.066;2023-02-22T04:16:36;10.80;99.90
43183;DHT22;28802;38.578;-0.066;2023-02-22T04:19:06;10.80;99.90
43183;DHT22;28802;38.578;-0.066;2023-02-22T04:21:33;10.80;99.90
43183;DHT22;28802;38.578;-0.066;2023-02-22T04:24:00;10.70;99.90
43183;DHT22;28802;38.578;-0.066;2023-02-22T04:26:26;10.60;99.90
43183;DHT22;28802;38.578;-0.066;2023-02-22T04:28:55;10.60;99.90
43183;DHT22;28802;38.578;-0.066;2023-02-22T04:31:23;10.40;99.90
43183;DHT22;28802;38.578;-0.066;2023-02-22T04:33:50;10.40;99.90
43183;DHT22;28802;38.578;-0.066;2023-02-22T04:36:20;10.50;99.90
43183;DHT22;28802;38.578;-0.066;2023-02-22T04:38:46;10.50;99.90
43183;DHT22;28802;38.578;-0.066;2023-02-22T04:41:13;10.50;99.90
43183;DHT22;28802;38.578;-0.066;2023-02-22T04:43:39;10.60;99.90
43183;DHT22;28802;38.578;-0.066;2023-02-22T04:46:16;10.50;99.90
43183;DHT22;28802;38.578;-0.066;2023-02-22T04:48:42;10.30;99.90
43183;DHT22;28802;38.578;-0.066;2023-02-22T04:51:08;10.10;99.90
43183;DHT22;28802;38.578;-0.066;2023-02-22T04:53:35;10.00;99.90
43183;DHT22;28802;38.578;-0.066;2023-02-22T04:56:01;10.00;99.90
43183;DHT22;28802;38.578;-0.066;2023-02-22T04:58:27;10.20;99.90
43183;DHT22;28802;38.578;-0.066;2023-02-22T05:00:53;10.30;99.90
43183;DHT22;28802;38.578;-0.066;2023-02-22T05:03:19;10.30;99.90
43183;DHT22;28802;38.578;-0.066;2023-02-22T05:05:45;10.30;99.90
43183;DHT22;28802;38.578;-0.066;2023-02-22T05:08:11;10.30;99.90
43183;DHT22;28802;38.578;-0.066;2023-02-22T05:10:37;10.20;99.90
43183;DHT22;28802;38.578;-0.066;2023-02-22T05:13:03;10.20;99.90
43183;DHT22;28802;38.578;-0.066;2023-02-22T05:15:30;10.30;99.90
43183;DHT22;28802;38.578;-0.066;2023-02-22T05:17:57;10.40;99.90
43183;DHT22;28802;38.578;-0.066;2023-02-22T05:20:31;10.40;99.90
43183;DHT22;28802;38.578;-0.066;2023-02-22T05:22:58;10.50;99.90
43183;DHT22;28802;38.578;-0.066;2023-02-22T05:25:25;10.50;99.90
43183;DHT22;28802;38.578;-0.066;2023-02-22T05:27:54;10.40;99.90
43183;DHT22;28802;38.578;-0.066;2023-02-22T05:30:26;10.50;99.90
43183;DHT22;28802;38.578;-0.066;2023-02-22T05:32:52;10.40;99.90
43183;DHT22;28802;38.578;-0.066;2023-02-22T05:35:19;10.40;99.90
43183;DHT22;28802;38.578;-0.066;2023-02-22T05:37:46;10.20;99.90
43183;DHT22;28802;38.578;-0.066;2023-02-22T05:40:12;10.20;99.90
43183;DHT22;28802;38.578;-0.066;2023-02-22T05:42:41;10.20;99.90
43183;DHT22;28802;38.578;-0.066;2023-02-22T05:45:08;10.10;99.90
43183;DHT22;28802;38.578;-0.066;2023-02-22T05:47:36;10.10;99.90
43183;DHT22;28802;38.578;-0.066;2023-02-22T05:50:02;10.00;99.90
43183;DHT22;28802;38.578;-0.066;2023-02-22T05:52:28;10.00;99.90
43183;DHT22;28802;38.578;-0.066;2023-02-22T05:54:54;9.80;99.90
43183;DHT22;28802;38.578;-0.066;2023-02-22T05:57:20;9.80;99.90
43183;DHT22;28802;38.578;-0.066;2023-02-22T05:59:46;9.80;99.90
43183;DHT22;28802;38.578;-0.066;2023-02-22T06:02:11;9.90;99.90
43183;DHT22;28802;38.578;-0.066;2023-02-22T06:04:37;9.80;99.90
43183;DHT22;28802;38.578;-0.066;2023-02-22T06:07:04;9.80;99.90
43183;DHT22;28802;38.578;-0.066;2023-02-22T06:09:31;9.90;99.90
43183;DHT22;28802;38.578;-0.066;2023-02-22T06:11:57;9.80;99.90
43183;DHT22;28802;38.578;-0.066;2023-02-22T06:14:23;9.80;99.90
43183;DHT22;28802;38.578;-0.066;2023-02-22T06:16:53;9.80;99.90
43183;DHT22;28802;38.578;-0.066;2023-02-22T06:19:19;9.90;99.90
43183;DHT22;28802;38.578;-0.066;2023-02-22T06:21:55;10.00;99.90
43183;DHT22;28802;38.578;-0.066;2023-02-22T06:24:22;10.10;99.90
43183;DHT22;28802;38.578;-0.066;2023-02-22T06:26:59;9.90;99.90
43183;DHT22;28802;38.578;-0.066;2023-02-22T06:29:27;9.80;99.90
43183;DHT22;28802;38.578;-0.066;2023-02-22T06:31:53;9.80;99.90
43183;DHT22;28802;38.578;-0.066;2023-02-22T06:34:19;9.70;99.90
43183;DHT22;28802;38.578;-0.066;2023-02-22T06:36:47;9.80;99.90
43183;DHT22;28802;38.578;-0.066;2023-02-22T06:39:17;9.90;99.90
43183;DHT22;28802;38.578;-0.066;2023-02-22T06:41:44;9.80;99.90
43183;DHT22;28802;38.578;-0.066;2023-02-22T06:44:12;9.90;99.90
43183;DHT22;28802;38.578;-0.066;2023-02-22T06:46:38;9.60;99.90
43183;DHT22;28802;38.578;-0.066;2023-02-22T06:49:04;9.80;99.90
43183;DHT22;28802;38.578;-0.066;2023-02-22T06:51:35;9.80;99.90
43183;DHT22;28802;38.578;-0.066;2023-02-22T06:54:02;9.90;99.90
43183;DHT22;28802;38.578;-0.066;2023-02-22T06:56:29;10.00;99.90
43183;DHT22;28802;38.578;-0.066;2023-02-22T06:58:54;10.00;99.90
43183;DHT22;28802;38.578;-0.066;2023-02-22T07:01:20;9.80;99.90
43183;DHT22;28802;38.578;-0.066;2023-02-22T07:03:48;9.60;99.90
43183;DHT22;28802;38.578;-0.066;2023-02-22T07:06:14;9.70;99.90
43183;DHT22;28802;38.578;-0.066;2023-02-22T07:08:40;9.80;99.90
43183;DHT22;28802;38.578;-0.066;2023-02-22T07:11:06;9.90;99.90
43183;DHT22;28802;38.578;-0.066;2023-02-22T07:13:32;10.10;99.90
43183;DHT22;28802;38.578;-0.066;2023-02-22T07:15:58;10.30;99.90
43183;DHT22;28802;38.578;-0.066;2023-02-22T07:18:24;10.50;99.90
43183;DHT22;28802;38.578;-0.066;2023-02-22T07:20:50;10.60;99.90
43183;DHT22;28802;38.578;-0.066;2023-02-22T07:23:16;10.70;99.90
43183;DHT22;28802;38.578;-0.066;2023-02-22T07:25:42;11.00;99.90
43183;DHT22;28802;38.578;-0.066;2023-02-22T07:28:09;11.30;99.90
43183;DHT22;28802;38.578;-0.066;2023-02-22T07:30:36;11.50;99.90
43183;DHT22;28802;38.578;-0.066;2023-02-22T07:33:08;11.60;99.90
43183;DHT22;28802;38.578;-0.066;2023-02-22T07:35:42;11.80;99.90
43183;DHT22;28802;38.578;-0.066;2023-02-22T07:38:13;11.90;99.90
43183;DHT22;28802;38.578;-0.066;2023-02-22T07:40:40;12.10;99.90
43183;DHT22;28802;38.578;-0.066;2023-02-22T07:43:19;12.30;99.90
43183;DHT22;28802;38.578;-0.066;2023-02-22T07:45:46;12.80;99.90
43183;DHT22;28802;38.578;-0.066;2023-02-22T07:48:14;13.00;99.90
43183;DHT22;28802;38.578;-0.066;2023-02-22T07:50:40;13.30;99.90
43183;DHT22;28802;38.578;-0.066;2023-02-22T07:53:12;13.60;99.90
43183;DHT22;28802;38.578;-0.066;2023-02-22T07:55:38;13.90;99.90
43183;DHT22;28802;38.578;-0.066;2023-02-22T07:58:06;14.20;99.90
43183;DHT22;28802;38.578;-0.066;2023-02-22T08:00:35;14.60;99.90
43183;DHT22;28802;38.578;-0.066;2023-02-22T08:03:04;15.00;99.90
43183;DHT22;28802;38.578;-0.066;2023-02-22T08:05:31;15.50;99.90
43183;DHT22;28802;38.578;-0.066;2023-02-22T08:07:58;15.90;99.90
43183;DHT22;28802;38.578;-0.066;2023-02-22T08:10:24;16.30;99.90
43183;DHT22;28802;38.578;-0.066;2023-02-22T08:12:51;16.60;99.90
43183;DHT22;28802;38.578;-0.066;2023-02-22T08:15:23;17.00;99.90
43183;DHT22;28802;38.578;-0.066;2023-02-22T08:17:50;17.30;99.90
43183;DHT22;28802;38.578;-0.066;2023-02-22T08:20:16;17.60;99.90
43183;DHT22;28802;38.578;-0.066;2023-02-22T08:22:43;18.00;99.90
43183;DHT22;28802;38.578;-0.066;2023-02-22T08:25:09;18.20;99.90
43183;DHT22;28802;38.578;-0.066;2023-02-22T08:27:35;18.30;99.90
43183;DHT22;28802;38.578;-0.066;2023-02-22T08:30:01;18.50;99.90
43183;DHT22;28802;38.578;-0.066;2023-02-22T08:32:27;18.80;99.90
43183;DHT22;28802;38.578;-0.066;2023-02-22T08:34:53;19.00;99.90
43183;DHT22;28802;38.578;-0.066;2023-02-22T08:37:19;19.20;99.90
43183;DHT22;28802;38.578;-0.066;2023-02-22T08:39:45;19.50;99.90
43183;DHT22;28802;38.578;-0.066;2023-02-22T08:42:11;19.80;99.90
43183;DHT22;28802;38.578;-0.066;2023-02-22T08:44:46;20.10;99.90
43183;DHT22;28802;38.578;-0.066;2023-02-22T08:47:25;20.30;99.90
43183;DHT22;28802;38.578;-0.066;2023-02-22T08:49:51;20.60;99.90
43183;DHT22;28802;38.578;-0.066;2023-02-22T08:52:22;21.00;99.90
43183;DHT22;28802;38.578;-0.066;2023-02-22T08:55:06;21.20;99.90
43183;DHT22;28802;38.578;-0.066;2023-02-22T08:57:32;20.30;99.90
43183;DHT22;28802;38.578;-0.066;2023-02-22T08:59:58;19.40;99.90
43183;DHT22;28802;38.578;-0.066;2023-02-22T09:02:24;18.80;99.90
43183;DHT22;28802;38.578;-0.066;2023-02-22T09:04:50;18.10;99.90
43183;DHT22;28802;38.578;-0.066;2023-02-22T09:07:17;17.90;99.90
43183;DHT22;28802;38.578;-0.066;2023-02-22T09:09:50;17.40;99.90
43183;DHT22;28802;38.578;-0.066;2023-02-22T09:12:23;16.70;99.90
43183;DHT22;28802;38.578;-0.066;2023-02-22T09:15:22;16.60;99.90
43183;DHT22;28802;38.578;-0.066;2023-02-22T09:17:53;17.20;99.90
43183;DHT22;28802;38.578;-0.066;2023-02-22T09:20:21;18.00;99.90
43183;DHT22;28802;38.578;-0.066;2023-02-22T09:22:48;19.00;99.90
43183;DHT22;28802;38.578;-0.066;2023-02-22T09:25:14;19.20;99.90
43183;DHT22;28802;38.578;-0.066;2023-02-22T09:27:41;18.60;99.90
43183;DHT22;28802;38.578;-0.066;2023-02-22T09:30:16;18.70;99.90
43183;DHT22;28802;38.578;-0.066;2023-02-22T09:32:43;18.80;99.90
43183;DHT22;28802;38.578;-0.066;2023-02-22T09:35:09;19.10;99.90
43183;DHT22;28802;38.578;-0.066;2023-02-22T09:37:35;19.40;99.90
43183;DHT22;28802;38.578;-0.066;2023-02-22T09:40:07;19.10;99.90
43183;DHT22;28802;38.578;-0.066;2023-02-22T09:42:42;19.00;99.90
43183;DHT22;28802;38.578;-0.066;2023-02-22T09:45:23;18.90;99.90
43183;DHT22;28802;38.578;-0.066;2023-02-22T09:47:59;17.50;99.90
43183;DHT22;28802;38.578;-0.066;2023-02-22T09:50:31;16.70;99.90
43183;DHT22;28802;38.578;-0.066;2023-02-22T09:53:11;16.40;99.90
43183;DHT22;28802;38.578;-0.066;2023-02-22T09:55:48;16.70;99.90
43183;DHT22;28802;38.578;-0.066;2023-02-22T10:00:45;17.40;99.90
43183;DHT22;28802;38.578;-0.066;2023-02-22T10:03:32;17.50;99.90
43183;DHT22;28802;38.578;-0.066;2023-02-22T10:08:33;17.40;99.90
43183;DHT22;28802;38.578;-0.066;2023-02-22T10:19:40;18.60;99.90
43183;DHT22;28802;38.578;-0.066;2023-02-22T10:27:32;19.80;99.90
43183;DHT22;28802;38.578;-0.066;2023-02-22T10:30:22;19.50;99.90
43183;DHT22;28802;38.578;-0.066;2023-02-22T10:32:54;20.00;99.90
43183;DHT22;28802;38.578;-0.066;2023-02-22T10:35:26;20.60;99.90
43183;DHT22;28802;38.578;-0.066;2023-02-22T10:37:57;21.20;99.90
43183;DHT22;28802;38.578;-0.066;2023-02-22T10:40:24;21.10;99.90
43183;DHT22;28802;38.578;-0.066;2023-02-22T10:42:59;21.10;99.90
43183;DHT22;28802;38.578;-0.066;2023-02-22T10:45:30;21.60;99.90
43183;DHT22;28802;38.578;-0.066;2023-02-22T10:48:06;21.40;99.90
43183;DHT22;28802;38.578;-0.066;2023-02-22T10:50:35;19.40;99.90
43183;DHT22;28802;38.578;-0.066;2023-02-22T10:53:02;19.50;99.90
43183;DHT22;28802;38.578;-0.066;2023-02-22T10:55:28;19.90;99.90
43183;DHT22;28802;38.578;-0.066;2023-02-22T10:58:05;19.50;99.90
43183;DHT22;28802;38.578;-0.066;2023-02-22T11:00:32;19.90;99.90
43183;DHT22;28802;38.578;-0.066;2023-02-22T11:03:22;20.40;99.90
43183;DHT22;28802;38.578;-0.066;2023-02-22T11:05:49;20.70;99.90
43183;DHT22;28802;38.578;-0.066;2023-02-22T11:08:23;18.90;99.90
43183;DHT22;28802;38.578;-0.066;2023-02-22T11:10:55;17.30;99.90
43183;DHT22;28802;38.578;-0.066;2023-02-22T11:13:30;17.30;99.90
43183;DHT22;28802;38.578;-0.066;2023-02-22T11:16:18;17.20;99.90
43183;DHT22;28802;38.578;-0.066;2023-02-22T11:18:45;17.10;99.90
43183;DHT22;28802;38.578;-0.066;2023-02-22T11:21:12;16.80;99.90
43183;DHT22;28802;38.578;-0.066;2023-02-22T11:23:42;17.30;99.90
43183;DHT22;28802;38.578;-0.066;2023-02-22T11:26:13;17.60;99.90
43183;DHT22;28802;38.578;-0.066;2023-02-22T11:28:49;17.20;99.90
43183;DHT22;28802;38.578;-0.066;2023-02-22T11:31:21;17.40;99.90
43183;DHT22;28802;38.578;-0.066;2023-02-22T11:33:54;17.80;99.90
43183;DHT22;28802;38.578;-0.066;2023-02-22T11:36:40;18.00;99.90
43183;DHT22;28802;38.578;-0.066;2023-02-22T11:39:22;18.00;99.90
43183;DHT22;28802;38.578;-0.066;2023-02-22T11:41:49;18.20;99.90
43183;DHT22;28802;38.578;-0.066;2023-02-22T11:44:30;17.90;99.90
43183;DHT22;28802;38.578;-0.066;2023-02-22T11:47:00;17.80;99.90
43183;DHT22;28802;38.578;-0.066;2023-02-22T11:49:43;17.60;99.90
43183;DHT22;28802;38.578;-0.066;2023-02-22T11:52:30;17.50;99.90
43183;DHT22;28802;38.578;-0.066;2023-02-22T11:55:28;17.00;99.90
43183;DHT22;28802;38.578;-0.066;2023-02-22T12:00:52;17.40;99.90
43183;DHT22;28802;38.578;-0.066;2023-02-22T12:17:09;17.20;99.90
43183;DHT22;28802;38.578;-0.066;2023-02-22T12:19:43;16.70;99.90
43183;DHT22;28802;38.578;-0.066;2023-02-22T12:22:28;16.40;99.90
43183;DHT22;28802;38.578;-0.066;2023-02-22T12:25:17;16.70;99.90
43183;DHT22;28802;38.578;-0.066;2023-02-22T12:27:56;16.60;99.90
43183;DHT22;28802;38.578;-0.066;2023-02-22T12:32:58;15.80;99.90
43183;DHT22;28802;38.578;-0.066;2023-02-22T12:35:25;16.30;99.90
43183;DHT22;28802;38.578;-0.066;2023-02-22T12:41:17;15.90;99.90
43183;DHT22;28802;38.578;-0.066;2023-02-22T12:43:56;16.30;99.90
43183;DHT22;28802;38.578;-0.066;2023-02-22T12:46:40;16.00;99.90
43183;DHT22;28802;38.578;-0.066;2023-02-22T12:59:46;15.90;99.90
43183;DHT22;28802;38.578;-0.066;2023-02-22T13:02:21;15.80;99.90
43183;DHT22;28802;38.578;-0.066;2023-02-22T13:04:50;15.60;99.90
43183;DHT22;28802;38.578;-0.066;2023-02-22T13:12:47;15.90;99.90
43183;DHT22;28802;38.578;-0.066;2023-02-22T13:20:48;15.20;99.90
43183;DHT22;28802;38.578;-0.066;2023-02-22T13:29:09;15.90;99.90
43183;DHT22;28802;38.578;-0.066;2023-02-22T13:39:58;16.20;99.90
43183;DHT22;28802;38.578;-0.066;2023-02-22T13:42:46;15.80;99.90
43183;DHT22;28802;38.578;-0.066;2023-02-22T13:45:37;15.70;99.90
43183;DHT22;28802;38.578;-0.066;2023-02-22T13:51:12;15.20;99.90
43183;DHT22;28802;38.578;-0.066;2023-02-22T13:53:52;15.70;99.90
43183;DHT22;28802;38.578;-0.066;2023-02-22T13:56:23;15.60;99.90
43183;DHT22;28802;38.578;-0.066;2023-02-22T13:58:56;15.90;99.90
43183;DHT22;28802;38.578;-0.066;2023-02-22T14:01:44;16.00;99.90
43183;DHT22;28802;38.578;-0.066;2023-02-22T14:06:46;16.30;99.90
43183;DHT22;28802;38.578;-0.066;2023-02-22T14:09:16;16.10;99.90
43183;DHT22;28802;38.578;-0.066;2023-02-22T14:11:51;16.10;99.90
43183;DHT22;28802;38.578;-0.066;2023-02-22T14:14:21;15.80;99.90
43183;DHT22;28802;38.578;-0.066;2023-02-22T14:20:00;15.40;99.90
43183;DHT22;28802;38.578;-0.066;2023-02-22T14:22:27;15.40;99.90
43183;DHT22;28802;38.578;-0.066;2023-02-22T14:24:54;15.40;99.90
43183;DHT22;28802;38.578;-0.066;2023-02-22T14:27:21;15.60;99.90
43183;DHT22;28802;38.578;-0.066;2023-02-22T14:29:57;15.90;99.90
43183;DHT22;28802;38.578;-0.066;2023-02-22T14:32:32;16.00;99.90
43183;DHT22;28802;38.578;-0.066;2023-02-22T14:35:12;16.10;99.90
43183;DHT22;28802;38.578;-0.066;2023-02-22T14:37:42;16.10;99.90
43183;DHT22;28802;38.578;-0.066;2023-02-22T14:40:26;15.60;99.90
43183;DHT22;28802;38.578;-0.066;2023-02-22T14:43:08;15.20;99.90
43183;DHT22;28802;38.578;-0.066;2023-02-22T14:45:56;15.10;99.90
43183;DHT22;28802;38.578;-0.066;2023-02-22T14:48:36;14.90;99.90
43183;DHT22;28802;38.578;-0.066;2023-02-22T14:51:28;14.80;99.90
43183;DHT22;28802;38.578;-0.066;2023-02-22T14:54:36;14.80;99.90
43183;DHT22;28802;38.578;-0.066;2023-02-22T14:57:43;14.80;99.90
43183;DHT22;28802;38.578;-0.066;2023-02-22T15:00:22;14.80;99.90
43183;DHT22;28802;38.578;-0.066;2023-02-22T15:02:49;14.80;99.90
43183;DHT22;28802;38.578;-0.066;2023-02-22T15:05:18;14.90;99.90
43183;DHT22;28802;38.578;-0.066;2023-02-22T15:08:07;15.10;99.90
43183;DHT22;28802;38.578;-0.066;2023-02-22T15:10:40;15.20;99.90
43183;DHT22;28802;38.578;-0.066;2023-02-22T15:13:20;15.30;99.90
43183;DHT22;28802;38.578;-0.066;2023-02-22T15:16:03;15.60;99.90
43183;DHT22;28802;38.578;-0.066;2023-02-22T15:21:11;15.20;99.90
43183;DHT22;28802;38.578;-0.066;2023-02-22T15:23:46;15.20;99.90
43183;DHT22;28802;38.578;-0.066;2023-02-22T15:26:36;14.90;99.90
43183;DHT22;28802;38.578;-0.066;2023-02-22T15:29:23;14.80;99.90
43183;DHT22;28802;38.578;-0.066;2023-02-22T15:31:52;15.00;99.90
43183;DHT22;28802;38.578;-0.066;2023-02-22T15:34:22;15.10;99.90
43183;DHT22;28802;38.578;-0.066;2023-02-22T15:36:51;15.10;99.90
43183;DHT22;28802;38.578;-0.066;2023-02-22T15:39:32;15.30;99.90
43183;DHT22;28802;38.578;-0.066;2023-02-22T15:42:03;15.50;99.90
43183;DHT22;28802;38.578;-0.066;2023-02-22T15:44:41;15.60;99.90
43183;DHT22;28802;38.578;-0.066;2023-02-22T15:47:28;15.40;99.90
43183;DHT22;28802;38.578;-0.066;2023-02-22T15:52:52;15.30;99.90
43183;DHT22;28802;38.578;-0.066;2023-02-22T15:55:33;15.50;99.90
43183;DHT22;28802;38.578;-0.066;2023-02-22T15:58:27;15.60;99.90
43183;DHT22;28802;38.578;-0.066;2023-02-22T16:01:03;15.70;99.90
43183;DHT22;28802;38.578;-0.066;2023-02-22T16:03:52;15.50;99.90
43183;DHT22;28802;38.578;-0.066;2023-02-22T16:06:29;15.60;99.90
43183;DHT22;28802;38.578;-0.066;2023-02-22T16:08:58;15.50;99.90
43183;DHT22;28802;38.578;-0.066;2023-02-22T16:11:30;15.50;99.90
43183;DHT22;28802;38.578;-0.066;2023-02-22T16:14:00;15.50;99.90
43183;DHT22;28802;38.578;-0.066;2023-02-22T16:16:32;15.50;99.90
43183;DHT22;28802;38.578;-0.066;2023-02-22T16:21:55;15.20;99.90
43183;DHT22;28802;38.578;-0.066;2023-02-22T16:24:35;15.10;99.90
43183;DHT22;28802;38.578;-0.066;2023-02-22T16:27:22;15.00;99.90
43183;DHT22;28802;38.578;-0.066;2023-02-22T16:30:07;14.90;99.90
43183;DHT22;28802;38.578;-0.066;2023-02-22T16:32:34;14.90;99.90
43183;DHT22;28802;38.578;-0.066;2023-02-22T16:35:00;15.00;99.90
43183;DHT22;28802;38.578;-0.066;2023-02-22T16:37:26;15.20;99.90
43183;DHT22;28802;38.578;-0.066;2023-02-22T16:39:53;15.10;99.90
43183;DHT22;28802;38.578;-0.066;2023-02-22T16:42:20;15.20;99.90
43183;DHT22;28802;38.578;-0.066;2023-02-22T16:44:51;15.10;99.90
43183;DHT22;28802;38.578;-0.066;2023-02-22T16:47:17;14.90;99.90
43183;DHT22;28802;38.578;-0.066;2023-02-22T16:49:46;14.80;99.90
43183;DHT22;28802;38.578;-0.066;2023-02-22T16:52:12;14.90;99.90
43183;DHT22;28802;38.578;-0.066;2023-02-22T16:54:42;15.00;99.90
43183;DHT22;28802;38.578;-0.066;2023-02-22T16:57:19;15.10;99.90
43183;DHT22;28802;38.578;-0.066;2023-02-22T16:59:47;15.00;99.90
43183;DHT22;28802;38.578;-0.066;2023-02-22T17:02:17;14.90;99.90
43183;DHT22;28802;38.578;-0.066;2023-02-22T17:04:44;14.90;99.90
43183;DHT22;28802;38.578;-0.066;2023-02-22T17:07:20;14.80;99.90
43183;DHT22;28802;38.578;-0.066;2023-02-22T17:09:48;14.70;99.90
43183;DHT22;28802;38.578;-0.066;2023-02-22T17:12:17;14.90;99.90
43183;DHT22;28802;38.578;-0.066;2023-02-22T17:14:44;14.90;99.90
43183;DHT22;28802;38.578;-0.066;2023-02-22T17:17:11;14.80;99.90
43183;DHT22;28802;38.578;-0.066;2023-02-22T17:19:38;14.80;99.90
43183;DHT22;28802;38.578;-0.066;2023-02-22T17:22:08;14.80;99.90
43183;DHT22;28802;38.578;-0.066;2023-02-22T17:24:40;14.90;99.90
43183;DHT22;28802;38.578;-0.066;2023-02-22T17:27:06;15.10;99.90
43183;DHT22;28802;38.578;-0.066;2023-02-22T17:29:32;15.10;99.90
43183;DHT22;28802;38.578;-0.066;2023-02-22T17:31:58;15.00;99.90
43183;DHT22;28802;38.578;-0.066;2023-02-22T17:34:25;14.70;99.90
43183;DHT22;28802;38.578;-0.066;2023-02-22T17:36:53;14.80;99.90
43183;DHT22;28802;38.578;-0.066;2023-02-22T17:39:20;14.70;99.90
43183;DHT22;28802;38.578;-0.066;2023-02-22T17:41:46;14.60;99.90
43183;DHT22;28802;38.578;-0.066;2023-02-22T17:44:15;14.50;99.90
43183;DHT22;28802;38.578;-0.066;2023-02-22T17:46:41;14.40;99.90
43183;DHT22;28802;38.578;-0.066;2023-02-22T17:49:10;14.40;99.90
43183;DHT22;28802;38.578;-0.066;2023-02-22T17:51:39;14.40;99.90
43183;DHT22;28802;38.578;-0.066;2023-02-22T17:54:05;14.60;99.90
43183;DHT22;28802;38.578;-0.066;2023-02-22T17:56:31;14.40;99.90
43183;DHT22;28802;38.578;-0.066;2023-02-22T17:58:58;14.30;99.90